Time;durP1;ratioP1;P1;durP2;ratioP2;P2;SDS_P1;SDS_P2;PMS_P1;PMS_P2;Temp;Humidity;BMP_temperature;BMP_pressure;BME280_temperature;BME280_humidity;BME280_pressure;Samples;Min_cycle;Max_cycle;Signal;HPM_P1;HPM_P2
2021/06/28 00:01:32;;;;;;;4.87;3.97;;;18.90;99.90;;;;;;5085004;28;20181;-84
2021/06/28 00:03:58;;;;;;;3.70;3.40;;;18.70;99.90;;;;;;5077885;28;20181;-84
2021/06/28 00:06:24;;;;;;;4.13;3.40;;;18.70;99.90;;;;;;5079857;28;20181;-84
2021/06/28 00:08:51;;;;;;;3.47;2.70;;;18.70;99.90;;;;;;5079210;28;20198;-84
2021/06/28 00:11:18;;;;;;;3.40;3.10;;;18.70;99.90;;;;;;5077648;28;20244;-84
2021/06/28 00:13:45;;;;;;;3.47;3.17;;;18.70;99.90;;;;;;5077598;28;20240;-84
2021/06/28 00:16:12;;;;;;;3.70;3.30;;;18.70;99.90;;;;;;5078095;28;20177;-84
2021/06/28 00:18:39;;;;;;;3.40;3.10;;;18.70;99.90;;;;;;5076447;28;20743;-84
2021/06/28 00:21:06;;;;;;;3.77;3.20;;;18.70;99.90;;;;;;5077437;28;20177;-83
2021/06/28 00:23:32;;;;;;;3.57;3.27;;;18.70;99.90;;;;;;5076725;28;20177;-84
2021/06/28 00:25:58;;;;;;;7.80;3.00;;;18.70;99.90;;;;;;5079913;28;20635;-83
2021/06/28 00:28:23;;;;;;;5.23;3.13;;;18.70;99.90;;;;;;5083674;28;20329;-84
2021/06/28 00:30:49;;;;;;;8.37;3.30;;;18.70;99.90;;;;;;5079359;28;20177;-84
2021/06/28 00:33:18;;;;;;;3.50;2.80;;;18.70;99.90;;;;;;5079738;28;20208;-84
2021/06/28 00:35:44;;;;;;;3.23;2.70;;;18.70;99.90;;;;;;5081510;28;20208;-84
2021/06/28 00:38:10;;;;;;;3.23;2.70;;;18.70;99.90;;;;;;5080044;28;20384;-84
2021/06/28 00:40:38;;;;;;;3.80;2.77;;;18.60;99.90;;;;;;5081814;28;20180;-84
2021/06/28 00:43:05;;;;;;;3.37;2.83;;;18.50;99.90;;;;;;5082871;28;20178;-84
2021/06/28 00:45:32;;;;;;;4.23;2.73;;;18.50;99.90;;;;;;5080873;28;20202;-84
2021/06/28 00:48:02;;;;;;;2.90;2.57;;;18.50;99.90;;;;;;5081406;28;20208;-84
2021/06/28 00:50:30;;;;;;;4.47;3.10;;;18.40;99.90;;;;;;5080428;28;20177;-84
2021/06/28 00:53:02;;;;;;;3.50;3.13;;;18.50;99.90;;;;;;5082423;28;20179;-84
2021/06/28 00:55:28;;;;;;;3.90;2.80;;;18.50;99.90;;;;;;5083413;28;20200;-83
2021/06/28 00:57:55;;;;;;;3.20;2.90;;;18.50;99.90;;;;;;5082433;28;20201;-83
2021/06/28 01:00:21;;;;;;;3.13;2.83;;;18.50;99.90;;;;;;5083017;28;20180;-81
2021/06/28 01:02:48;;;;;;;3.10;2.83;;;18.50;99.90;;;;;;5077181;28;20184;-81
2021/06/28 01:05:17;;;;;;;6.17;3.07;;;18.60;99.90;;;;;;5077660;28;20200;-81
2021/06/28 01:07:43;;;;;;;6.23;3.10;;;18.60;99.90;;;;;;5078098;28;20201;-82
2021/06/28 01:10:13;;;;;;;2.90;2.70;;;18.50;99.90;;;;;;5076866;28;20184;-81
2021/06/28 01:12:39;;;;;;;3.30;3.00;;;18.60;99.90;;;;;;5076546;28;20188;-81
2021/06/28 01:15:07;;;;;;;4.00;2.70;;;18.50;99.90;;;;;;5076042;28;20207;-82
2021/06/28 01:17:33;;;;;;;6.50;2.90;;;18.50;99.90;;;;;;5077474;28;20193;-83
2021/06/28 01:20:14;;;;;;;3.67;2.93;;;18.50;99.90;;;;;;5085671;28;20551;-82
2021/06/28 01:22:42;;;;;;;2.90;2.70;;;18.50;99.90;;;;;;5081174;28;20634;-82
2021/06/28 01:25:11;;;;;;;2.90;2.70;;;18.40;99.90;;;;;;5082093;28;20557;-82
2021/06/28 01:27:38;;;;;;;2.90;2.67;;;18.40;99.90;;;;;;5080794;28;20273;-83
2021/06/28 01:30:07;;;;;;;3.67;2.97;;;18.40;99.90;;;;;;5080910;28;20184;-82
2021/06/28 01:32:33;;;;;;;3.33;2.63;;;18.40;99.90;;;;;;5081600;28;20232;-82
2021/06/28 01:34:59;;;;;;;2.93;2.70;;;18.40;99.90;;;;;;5084157;28;20206;-82
2021/06/28 01:37:27;;;;;;;3.50;3.20;;;18.30;99.90;;;;;;5084228;28;20202;-82
2021/06/28 01:39:56;;;;;;;3.33;2.93;;;18.30;99.90;;;;;;5084934;28;20197;-82
2021/06/28 01:42:23;;;;;;;3.17;2.70;;;18.30;99.90;;;;;;5083763;28;20548;-83
2021/06/28 01:44:49;;;;;;;4.33;3.13;;;18.30;99.90;;;;;;5083401;28;20279;-82
2021/06/28 01:47:15;;;;;;;3.47;3.17;;;18.20;99.90;;;;;;5083340;28;20637;-82
2021/06/28 01:49:41;;;;;;;5.50;3.17;;;18.20;99.90;;;;;;5083025;28;20183;-82
2021/06/28 01:52:07;;;;;;;4.53;3.10;;;18.10;99.90;;;;;;5082837;28;20599;-83
2021/06/28 01:54:33;;;;;;;4.60;2.73;;;18.20;99.90;;;;;;5084135;28;20205;-83
2021/06/28 01:57:00;;;;;;;5.10;3.30;;;18.20;99.90;;;;;;5083160;28;20173;-83
2021/06/28 01:59:30;;;;;;;3.40;3.10;;;18.10;99.90;;;;;;5083177;28;20728;-83
2021/06/28 02:01:57;;;;;;;3.57;3.27;;;18.10;99.90;;;;;;5082653;28;20193;-82
2021/06/28 02:04:23;;;;;;;3.83;3.23;;;18.10;99.90;;;;;;5082926;28;20314;-82
2021/06/28 02:06:48;;;;;;;3.57;3.13;;;18.00;99.90;;;;;;5082756;28;20222;-82
2021/06/28 02:09:15;;;;;;;4.07;3.43;;;18.00;99.90;;;;;;5082587;28;20228;-83
2021/06/28 02:11:41;;;;;;;3.47;3.17;;;18.00;99.90;;;;;;5084548;28;20222;-83
2021/06/28 02:14:07;;;;;;;3.63;3.10;;;18.00;99.90;;;;;;5083368;28;20215;-83
2021/06/28 02:16:33;;;;;;;4.03;3.63;;;18.00;99.90;;;;;;5082994;28;20197;-83
2021/06/28 02:18:59;;;;;;;3.67;3.37;;;18.00;99.90;;;;;;5084198;28;20715;-83
2021/06/28 02:21:25;;;;;;;5.20;3.40;;;17.90;99.90;;;;;;5082398;28;20196;-83
2021/06/28 02:23:50;;;;;;;4.20;3.57;;;18.00;99.90;;;;;;5084344;28;20565;-83
2021/06/28 02:26:16;;;;;;;4.43;3.83;;;18.00;99.90;;;;;;5083621;28;20262;-83
2021/06/28 02:28:45;;;;;;;4.13;3.60;;;18.00;99.90;;;;;;5083391;28;20212;-83
2021/06/28 02:31:13;;;;;;;4.57;3.03;;;18.00;99.90;;;;;;5083946;28;20173;-82
2021/06/28 02:33:41;;;;;;;3.47;3.17;;;18.00;99.90;;;;;;5084429;28;20208;-83
2021/06/28 02:36:08;;;;;;;6.10;3.30;;;18.00;99.90;;;;;;5091904;28;20154;-83
2021/06/28 02:38:35;;;;;;;5.87;3.40;;;18.00;99.90;;;;;;5096189;28;20249;-82
2021/06/28 02:41:01;;;;;;;5.13;3.00;;;18.00;99.90;;;;;;5085445;28;20177;-83
2021/06/28 02:43:27;;;;;;;6.17;3.37;;;18.00;99.90;;;;;;5087013;28;20206;-83
2021/06/28 02:45:53;;;;;;;4.43;3.40;;;18.00;99.90;;;;;;5080752;28;20166;-83
2021/06/28 02:48:20;;;;;;;3.70;3.40;;;18.00;99.90;;;;;;5078343;28;20252;-82
2021/06/28 02:50:46;;;;;;;7.13;3.20;;;18.00;99.90;;;;;;5078699;28;20182;-83
2021/06/28 02:53:12;;;;;;;5.07;3.10;;;18.00;99.90;;;;;;5077102;28;20515;-82
2021/06/28 02:55:38;;;;;;;3.93;3.10;;;17.90;99.90;;;;;;5077823;28;20206;-82
2021/06/28 02:58:04;;;;;;;5.57;3.23;;;17.90;99.90;;;;;;5076578;28;20197;-82
2021/06/28 03:00:30;;;;;;;5.80;3.10;;;17.80;99.90;;;;;;5085616;28;20193;-82
2021/06/28 03:02:58;;;;;;;3.23;2.93;;;17.80;99.90;;;;;;5081436;28;20173;-82
2021/06/28 03:05:24;;;;;;;5.23;3.20;;;17.70;99.90;;;;;;5080245;28;20179;-82
2021/06/28 03:07:50;;;;;;;4.30;3.20;;;17.80;99.90;;;;;;5080094;28;20195;-82
2021/06/28 03:10:16;;;;;;;3.67;3.30;;;17.70;99.90;;;;;;5079061;28;20169;-82
2021/06/28 03:12:42;;;;;;;3.93;3.53;;;17.70;99.90;;;;;;5076363;28;20174;-82
2021/06/28 03:15:17;;;;;;;5.50;4.07;;;17.60;99.90;;;;;;5075281;28;20197;-82
2021/06/28 03:17:44;;;;;;;3.90;3.40;;;17.60;99.90;;;;;;5089025;28;20696;-82
2021/06/28 03:20:14;;;;;;;6.53;3.07;;;17.60;99.90;;;;;;5083212;28;20210;-82
2021/06/28 03:22:41;;;;;;;4.30;3.10;;;17.60;99.90;;;;;;5081955;28;20170;-82
2021/06/28 03:25:10;;;;;;;5.87;3.93;;;17.50;99.90;;;;;;5082201;28;20242;-82
2021/06/28 03:27:37;;;;;;;4.77;3.90;;;17.50;99.90;;;;;;5084113;28;20216;-82
2021/06/28 03:30:04;;;;;;;6.13;3.50;;;17.40;99.90;;;;;;5084496;28;20174;-82
2021/06/28 03:32:30;;;;;;;4.23;3.10;;;17.40;99.90;;;;;;5082603;28;20267;-82
2021/06/28 03:34:56;;;;;;;3.67;3.23;;;17.30;99.90;;;;;;5083398;28;20209;-82
2021/06/28 03:37:21;;;;;;;3.83;3.37;;;17.30;99.90;;;;;;5084486;28;20169;-82
2021/06/28 03:39:47;;;;;;;4.40;3.33;;;17.20;99.90;;;;;;5082920;28;20177;-82
2021/06/28 03:42:12;;;;;;;3.20;2.90;;;17.20;99.90;;;;;;5083120;28;20184;-82
2021/06/28 03:44:40;;;;;;;5.00;3.13;;;17.10;99.90;;;;;;5083976;28;20216;-82
2021/06/28 03:47:06;;;;;;;4.20;2.80;;;17.10;99.90;;;;;;5083263;28;20207;-82
2021/06/28 03:49:31;;;;;;;3.60;3.30;;;17.10;99.90;;;;;;5084080;28;20248;-82
2021/06/28 03:51:57;;;;;;;4.03;2.90;;;17.10;99.90;;;;;;5087118;28;20238;-81
2021/06/28 03:54:23;;;;;;;3.70;3.20;;;17.10;99.90;;;;;;5085346;28;20201;-82
2021/06/28 03:56:48;;;;;;;3.77;3.43;;;17.10;99.90;;;;;;5082349;28;20181;-82
2021/06/28 03:59:14;;;;;;;3.87;3.27;;;17.00;99.90;;;;;;5078947;28;20206;-82
2021/06/28 04:01:40;;;;;;;3.97;3.20;;;16.90;99.90;;;;;;5081146;28;20666;-82
2021/06/28 04:04:05;;;;;;;3.80;3.37;;;16.90;99.90;;;;;;5082789;28;20173;-82
2021/06/28 04:06:32;;;;;;;3.50;3.07;;;16.90;99.90;;;;;;5082750;28;20272;-82
2021/06/28 04:08:57;;;;;;;7.60;3.63;;;16.90;99.90;;;;;;5083917;28;20265;-82
2021/06/28 04:11:23;;;;;;;3.70;3.40;;;16.90;99.90;;;;;;5082737;28;20181;-82
2021/06/28 04:13:49;;;;;;;5.00;3.90;;;16.90;99.90;;;;;;5083277;28;20190;-82
2021/06/28 04:16:15;;;;;;;4.87;4.37;;;16.90;99.90;;;;;;5081773;28;20203;-82
2021/06/28 04:18:40;;;;;;;4.13;3.73;;;16.90;99.90;;;;;;5083676;28;20194;-82
2021/06/28 04:21:06;;;;;;;4.33;3.63;;;16.90;99.90;;;;;;5082568;28;20639;-82
2021/06/28 04:23:32;;;;;;;4.57;3.43;;;16.90;99.90;;;;;;5085694;28;20272;-82
2021/06/28 04:25:58;;;;;;;5.60;3.77;;;16.90;99.90;;;;;;5085652;28;20198;-82
2021/06/28 04:28:23;;;;;;;3.87;3.40;;;17.00;99.90;;;;;;5080958;28;20213;-81
2021/06/28 04:30:49;;;;;;;2.83;2.63;;;17.00;99.90;;;;;;5081200;28;20317;-82
2021/06/28 04:33:16;;;;;;;4.43;3.30;;;17.00;99.90;;;;;;5082847;28;20188;-82
2021/06/28 04:35:42;;;;;;;3.57;3.27;;;17.00;99.90;;;;;;5081728;28;20204;-82
2021/06/28 04:38:07;;;;;;;5.03;3.10;;;17.00;99.90;;;;;;5081760;28;20250;-82
2021/06/28 04:40:33;;;;;;;3.30;3.00;;;17.10;99.90;;;;;;5082513;28;20179;-83
2021/06/28 04:42:59;;;;;;;3.77;3.23;;;17.10;99.90;;;;;;5082426;28;20187;-82
2021/06/28 04:45:27;;;;;;;3.20;2.90;;;17.10;99.90;;;;;;5083844;28;20232;-82
2021/06/28 04:47:53;;;;;;;3.47;2.90;;;17.10;99.90;;;;;;5082008;28;20198;-83
2021/06/28 04:50:23;;;;;;;4.23;2.90;;;17.10;99.90;;;;;;5080213;28;20263;-79
2021/06/28 04:52:50;;;;;;;3.53;3.23;;;17.20;99.90;;;;;;5077795;28;20174;-79
2021/06/28 04:55:16;;;;;;;3.57;3.27;;;17.20;99.90;;;;;;5078154;28;20229;-79
2021/06/28 04:57:44;;;;;;;4.67;3.20;;;17.30;99.90;;;;;;5074413;28;20244;-78
2021/06/28 05:00:12;;;;;;;3.07;2.70;;;17.30;99.90;;;;;;5074087;28;20259;-79
2021/06/28 05:02:38;;;;;;;3.53;3.10;;;17.40;99.90;;;;;;5073725;28;20174;-79
2021/06/28 05:05:05;;;;;;;3.67;2.90;;;17.40;99.90;;;;;;5084582;28;20184;-80
2021/06/28 05:07:31;;;;;;;4.03;3.07;;;17.50;99.90;;;;;;5077498;28;20254;-79
2021/06/28 05:09:56;;;;;;;3.30;2.93;;;17.60;99.90;;;;;;5078636;28;20174;-79
2021/06/28 05:12:23;;;;;;;5.43;3.27;;;17.60;99.90;;;;;;5080511;28;20189;-79
2021/06/28 05:14:48;;;;;;;3.33;2.87;;;17.70;99.90;;;;;;5082110;28;20202;-78
2021/06/28 05:17:14;;;;;;;6.90;2.90;;;17.70;99.90;;;;;;5084362;28;20184;-78
2021/06/28 05:19:40;;;;;;;5.80;2.70;;;17.80;99.90;;;;;;5080970;28;20196;-79
2021/06/28 05:22:06;;;;;;;3.37;3.07;;;17.80;99.90;;;;;;5079087;28;20181;-78
2021/06/28 05:24:31;;;;;;;6.97;3.27;;;17.90;99.90;;;;;;5078474;28;20181;-78
2021/06/28 05:26:57;;;;;;;7.67;3.27;;;18.00;99.90;;;;;;5074853;28;20581;-78
2021/06/28 05:29:23;;;;;;;5.93;3.20;;;18.10;99.90;;;;;;5078096;28;20217;-78
2021/06/28 05:31:48;;;;;;;5.83;2.67;;;18.20;99.90;;;;;;5076871;28;20177;-78
2021/06/28 05:34:14;;;;;;;3.97;3.30;;;18.30;99.90;;;;;;5076360;28;20200;-78
2021/06/28 05:36:40;;;;;;;3.27;2.77;;;18.30;99.90;;;;;;5076441;28;20165;-78
2021/06/28 05:39:06;;;;;;;4.13;2.97;;;18.40;99.90;;;;;;5077899;28;20193;-78
2021/06/28 05:41:32;;;;;;;3.50;2.70;;;18.50;99.90;;;;;;5077805;28;20250;-78
2021/06/28 05:43:57;;;;;;;4.40;3.20;;;18.60;99.90;;;;;;5077767;28;20254;-78
2021/06/28 05:46:23;;;;;;;4.20;2.53;;;18.60;99.90;;;;;;5076930;28;20693;-78
2021/06/28 05:48:49;;;;;;;2.60;2.30;;;18.70;99.90;;;;;;5077283;28;20222;-77
2021/06/28 05:51:18;;;;;;;4.70;2.97;;;18.80;99.90;;;;;;5076756;28;20180;-78
2021/06/28 05:53:43;;;;;;;4.70;3.03;;;18.90;99.90;;;;;;5075624;28;20188;-78
2021/06/28 05:56:09;;;;;;;4.67;2.57;;;18.90;99.90;;;;;;5076509;28;20178;-77
2021/06/28 05:58:35;;;;;;;2.60;2.40;;;19.00;99.90;;;;;;5075164;28;20276;-77
2021/06/28 06:01:02;;;;;;;3.77;3.03;;;19.00;99.90;;;;;;5076283;28;20178;-77
2021/06/28 06:03:28;;;;;;;2.30;2.10;;;19.10;99.90;;;;;;5075168;28;20179;-78
2021/06/28 06:05:54;;;;;;;2.67;2.43;;;19.10;99.90;;;;;;5077320;28;20168;-78
2021/06/28 06:08:24;;;;;;;3.50;2.40;;;19.10;99.90;;;;;;5075471;28;20605;-77
2021/06/28 06:10:51;;;;;;;2.90;2.40;;;19.20;99.90;;;;;;5076138;28;20195;-77
2021/06/28 06:13:17;;;;;;;3.37;2.30;;;19.30;99.90;;;;;;5083326;28;20194;-83
2021/06/28 06:15:43;;;;;;;2.20;2.00;;;19.40;99.90;;;;;;5083417;28;20680;-82
2021/06/28 06:18:08;;;;;;;3.67;2.30;;;19.50;99.90;;;;;;5086322;28;20187;-83
2021/06/28 06:20:35;;;;;;;4.33;2.83;;;19.50;99.90;;;;;;5087437;28;20169;-82
2021/06/28 06:23:01;;;;;;;3.83;2.70;;;19.60;99.90;;;;;;5080899;28;20281;-82
2021/06/28 06:25:27;;;;;;;5.07;2.47;;;19.60;99.90;;;;;;5080589;28;20284;-83
2021/06/28 06:27:52;;;;;;;2.43;2.23;;;19.70;99.90;;;;;;5081602;28;20626;-85
2021/06/28 06:30:18;;;;;;;3.07;2.40;;;19.80;99.90;;;;;;5081312;28;20205;-82
2021/06/28 06:32:44;;;;;;;5.10;2.70;;;19.90;99.90;;;;;;5080567;28;20296;-82
2021/06/28 06:35:10;;;;;;;2.90;2.37;;;20.00;99.90;;;;;;5081991;28;20636;-82
2021/06/28 06:37:36;;;;;;;3.00;2.50;;;20.10;99.90;;;;;;5080843;28;20191;-83
2021/06/28 06:40:03;;;;;;;9.33;3.00;;;20.20;99.90;;;;;;5080139;28;20232;-82
2021/06/28 06:42:29;;;;;;;5.80;3.07;;;20.30;99.90;;;;;;5080142;28;20201;-82
2021/06/28 06:44:54;;;;;;;2.63;2.40;;;20.30;99.90;;;;;;5079192;28;20619;-82
2021/06/28 06:47:21;;;;;;;3.10;2.70;;;20.50;99.90;;;;;;5077767;28;20178;-82
2021/06/28 06:49:47;;;;;;;8.90;2.80;;;20.60;99.90;;;;;;5076833;28;20208;-82
2021/06/28 06:52:13;;;;;;;4.13;2.37;;;20.70;99.90;;;;;;5076993;28;20275;-82
2021/06/28 06:54:40;;;;;;;6.33;2.50;;;20.80;99.90;;;;;;5076548;28;20230;-82
2021/06/28 06:57:06;;;;;;;4.37;2.37;;;20.90;99.90;;;;;;5075542;28;20186;-81
2021/06/28 06:59:32;;;;;;;2.33;2.13;;;21.00;99.90;;;;;;5087477;28;20174;-85
2021/06/28 07:01:58;;;;;;;2.40;2.20;;;21.10;99.90;;;;;;5084317;28;20549;-83
2021/06/28 07:04:24;;;;;;;4.33;2.50;;;21.20;99.90;;;;;;5101481;28;20256;-82
2021/06/28 07:06:50;;;;;;;2.73;2.53;;;21.30;99.90;;;;;;5098612;28;20185;-79
2021/06/28 07:09:16;;;;;;;3.03;2.60;;;21.40;99.90;;;;;;5098769;28;20262;-79
2021/06/28 07:11:41;;;;;;;3.77;2.67;;;21.50;99.90;;;;;;5097711;28;20178;-80
2021/06/28 07:14:07;;;;;;;3.20;2.73;;;21.50;99.90;;;;;;5099483;28;20635;-79
2021/06/28 07:16:33;;;;;;;8.00;2.83;;;21.60;99.90;;;;;;5100179;28;20195;-81
2021/06/28 07:19:01;;;;;;;2.67;2.47;;;21.60;99.90;;;;;;5100247;28;20221;-82
2021/06/28 07:21:27;;;;;;;2.63;2.43;;;21.70;99.90;;;;;;5098500;28;20169;-79
2021/06/28 07:23:53;;;;;;;2.50;2.30;;;21.80;99.90;;;;;;5080843;28;20177;-79
2021/06/28 07:26:25;;;;;;;3.23;2.47;;;22.10;99.90;;;;;;5080499;28;20181;-77
2021/06/28 07:28:52;;;;;;;3.27;2.63;;;22.20;99.90;;;;;;5098003;28;20555;-83
2021/06/28 07:31:17;;;;;;;3.80;2.40;;;22.40;99.90;;;;;;5100202;28;20180;-81
2021/06/28 07:33:43;;;;;;;2.57;2.37;;;22.50;99.90;;;;;;5102111;28;20245;-79
2021/06/28 07:36:11;;;;;;;2.50;2.30;;;22.60;99.90;;;;;;5100367;28;20199;-79
2021/06/28 07:38:38;;;;;;;3.63;2.20;;;22.70;99.90;;;;;;5101157;28;20226;-79
2021/06/28 07:41:04;;;;;;;2.40;2.20;;;22.80;99.90;;;;;;5100285;28;20210;-79
2021/06/28 07:43:30;;;;;;;2.73;2.10;;;23.00;99.90;;;;;;5102233;28;20169;-79
2021/06/28 07:45:56;;;;;;;2.67;1.83;;;23.10;99.90;;;;;;5102197;28;20183;-79
2021/06/28 07:48:21;;;;;;;3.87;2.10;;;23.20;99.90;;;;;;5102484;28;20217;-79
2021/06/28 07:50:48;;;;;;;3.00;2.10;;;23.30;99.90;;;;;;5101585;28;20180;-79
2021/06/28 07:53:14;;;;;;;2.13;1.93;;;23.50;99.90;;;;;;5101556;28;20184;-78
2021/06/28 07:55:41;;;;;;;5.43;2.43;;;23.60;99.90;;;;;;5106617;28;20303;-78
2021/06/28 07:58:07;;;;;;;2.40;2.20;;;23.70;99.90;;;;;;5098739;28;20262;-79
2021/06/28 08:00:33;;;;;;;2.30;2.10;;;23.80;99.90;;;;;;5099375;28;20531;-79
2021/06/28 08:03:00;;;;;;;3.47;1.93;;;24.00;99.90;;;;;;5100048;28;20579;-79
2021/06/28 08:05:26;;;;;;;1.97;1.80;;;24.00;99.90;;;;;;5098945;28;20641;-79
2021/06/28 08:07:52;;;;;;;3.23;1.83;;;24.10;99.90;;;;;;5098830;28;20200;-79
2021/06/28 08:10:17;;;;;;;2.30;2.10;;;24.10;99.90;;;;;;5095900;28;20184;-79
2021/06/28 08:12:44;;;;;;;3.57;2.00;;;24.20;99.90;;;;;;5096027;28;20184;-79
2021/06/28 08:15:11;;;;;;;2.27;2.07;;;24.30;99.90;;;;;;5097318;28;20291;-79
2021/06/28 08:17:37;;;;;;;3.23;1.80;;;24.40;99.90;;;;;;5097904;28;20220;-79
2021/06/28 08:20:05;;;;;;;3.17;2.30;;;24.40;99.90;;;;;;5098979;28;20172;-79
2021/06/28 08:22:31;;;;;;;1.93;1.73;;;24.40;99.90;;;;;;5099281;28;20230;-79
2021/06/28 08:24:57;;;;;;;2.23;1.80;;;24.30;99.90;;;;;;5097794;28;20177;-79
2021/06/28 08:27:22;;;;;;;2.37;1.60;;;24.30;99.90;;;;;;5095538;28;20264;-79
2021/06/28 08:29:49;;;;;;;4.23;1.70;;;24.30;99.90;;;;;;5095994;28;20179;-79
2021/06/28 08:32:15;;;;;;;2.43;1.60;;;24.50;99.90;;;;;;5095531;28;20218;-79
2021/06/28 08:34:40;;;;;;;3.40;1.73;;;24.60;99.90;;;;;;5095240;28;20216;-79
2021/06/28 08:37:07;;;;;;;2.03;1.60;;;24.80;99.90;;;;;;5097525;28;20168;-79
2021/06/28 08:39:33;;;;;;;5.10;1.70;;;25.00;99.90;;;;;;5098941;28;20176;-79
2021/06/28 08:42:04;;;;;;;2.57;1.33;;;25.10;99.90;;;;;;5098809;28;20200;-79
2021/06/28 08:44:29;;;;;;;2.80;1.30;;;25.30;99.90;;;;;;5097749;28;20160;-79
2021/06/28 08:46:57;;;;;;;1.30;1.20;;;25.40;99.90;;;;;;5098191;28;20181;-79
2021/06/28 08:49:23;;;;;;;1.80;1.60;;;25.50;99.90;;;;;;5098627;28;20192;-79
2021/06/28 08:51:49;;;;;;;1.73;1.60;;;25.70;99.90;;;;;;5098817;28;20179;-79
2021/06/28 08:54:15;;;;;;;4.37;1.50;;;25.90;99.90;;;;;;5097006;28;20233;-79
2021/06/28 08:56:45;;;;;;;2.60;1.13;;;26.20;99.90;;;;;;5097365;28;20204;-79
2021/06/28 08:59:11;;;;;;;1.83;1.33;;;26.30;99.90;;;;;;5097883;28;20196;-79
2021/06/28 09:01:38;;;;;;;2.90;1.60;;;26.40;99.90;;;;;;5099235;28;20179;-79
2021/06/28 09:04:05;;;;;;;1.53;1.43;;;26.50;99.90;;;;;;5097767;28;20173;-79
2021/06/28 09:06:32;;;;;;;3.13;1.50;;;26.40;99.90;;;;;;5098181;28;20222;-79
2021/06/28 09:08:57;;;;;;;1.70;1.40;;;26.50;99.90;;;;;;5097786;28;20198;-79
2021/06/28 09:11:24;;;;;;;1.50;1.40;;;26.60;99.90;;;;;;5097882;28;20188;-80
2021/06/28 09:13:51;;;;;;;2.07;1.40;;;26.80;99.90;;;;;;5095294;28;20187;-79
2021/06/28 09:16:24;;;;;;;1.87;1.33;;;27.00;99.90;;;;;;5077473;28;20178;-80
2021/06/28 09:18:50;;;;;;;2.00;1.40;;;27.20;99.90;;;;;;5079322;28;20194;-80
2021/06/28 09:21:16;;;;;;;1.50;1.40;;;27.40;99.90;;;;;;5077674;28;20170;-80
2021/06/28 09:23:42;;;;;;;1.53;1.40;;;27.50;99.90;;;;;;5076690;28;20178;-80
2021/06/28 09:26:13;;;;;;;1.17;1.07;;;27.60;99.90;;;;;;5077134;28;20177;-77
2021/06/28 09:28:43;;;;;;;4.67;1.10;;;27.60;99.90;;;;;;5073052;28;20556;-76
2021/06/28 09:31:15;;;;;;;3.43;1.50;;;27.70;99.90;;;;;;5073065;28;20254;-76
2021/06/28 09:33:41;;;;;;;3.17;1.40;;;27.80;99.90;;;;;;5073041;28;20211;-76
2021/06/28 09:36:19;;;;;;;5.80;1.40;;;28.00;99.90;;;;;;5073364;28;20657;-76
2021/06/28 09:38:45;;;;;;;1.87;1.33;;;28.10;99.90;;;;;;5071595;28;20202;-76
2021/06/28 09:41:31;;;;;;;1.50;1.20;;;28.20;99.90;;;;;;5072816;28;20169;-77
2021/06/28 09:44:03;;;;;;;2.80;1.30;;;28.30;99.90;;;;;;5073192;28;20181;-76
2021/06/28 09:46:29;;;;;;;1.63;1.30;;;28.50;99.90;;;;;;5072883;28;20165;-76
2021/06/28 09:48:56;;;;;;;1.33;1.23;;;28.70;99.90;;;;;;5073021;28;20196;-76
2021/06/28 09:51:32;;;;;;;2.37;1.33;;;28.90;99.90;;;;;;5072730;28;20253;-76
2021/06/28 09:54:07;;;;;;;8.30;1.90;;;29.00;99.90;;;;;;5072840;28;20214;-76
2021/06/28 09:56:35;;;;;;;2.83;1.13;;;29.00;99.90;;;;;;5076133;28;20504;-77
2021/06/28 09:59:35;;;;;;;3.13;1.23;;;29.00;99.90;;;;;;5078108;28;20193;-81
2021/06/28 10:02:15;;;;;;;2.50;0.90;;;29.20;99.90;;;;;;5078537;28;20219;-80
2021/06/28 10:04:53;;;;;;;1.90;1.00;;;29.20;99.10;;;;;;5076463;28;20176;-77
2021/06/28 10:07:39;;;;;;;3.57;1.20;;;29.30;99.90;;;;;;5076489;28;20549;-77
2021/06/28 10:10:12;;;;;;;1.37;1.07;;;29.40;99.90;;;;;;5076686;28;20653;-77
2021/06/28 10:12:41;;;;;;;2.70;1.20;;;29.40;99.90;;;;;;5086437;28;20537;-76
2021/06/28 10:15:09;;;;;;;1.20;1.10;;;29.60;99.90;;;;;;5082116;28;20196;-80
2021/06/28 10:17:36;;;;;;;2.20;1.10;;;29.60;99.90;;;;;;5101843;28;20184;-78
2021/06/28 10:20:03;;;;;;;1.37;0.90;;;29.80;99.90;;;;;;5100980;28;20626;-78
2021/06/28 10:22:29;;;;;;;1.20;1.10;;;29.90;99.90;;;;;;5102916;28;20623;-79
2021/06/28 10:24:55;;;;;;;1.20;1.10;;;30.10;99.80;;;;;;5101449;28;20204;-79
2021/06/28 10:27:21;;;;;;;1.37;1.23;;;30.30;99.60;;;;;;5082393;28;20224;-83
2021/06/28 10:29:47;;;;;;;1.00;0.90;;;30.40;99.90;;;;;;5089694;28;20177;-79
2021/06/28 10:32:13;;;;;;;3.90;1.30;;;30.50;99.90;;;;;;5104029;28;20174;-80
2021/06/28 10:34:50;;;;;;;1.47;1.10;;;30.50;97.40;;;;;;5103889;28;20211;-79
2021/06/28 10:37:30;;;;;;;1.00;0.90;;;30.60;99.90;;;;;;5087128;28;20261;-79
2021/06/28 10:39:57;;;;;;;1.50;0.90;;;30.80;99.90;;;;;;5080719;28;20186;-79
2021/06/28 10:42:35;;;;;;;1.20;1.10;;;31.00;99.90;;;;;;5081117;28;20565;-79
2021/06/28 10:45:01;;;;;;;2.07;0.90;;;31.20;99.90;;;;;;5078770;28;20187;-79
2021/06/28 10:47:28;;;;;;;1.03;1.00;;;31.20;98.10;;;;;;5090867;28;20205;-79
2021/06/28 10:49:54;;;;;;;0.93;0.90;;;31.30;95.10;;;;;;5099566;28;20193;-79
2021/06/28 10:52:38;;;;;;;1.43;1.20;;;31.30;97.50;;;;;;5098428;28;20186;-79
2021/06/28 10:55:20;;;;;;;1.30;1.20;;;31.30;94.90;;;;;;5087976;28;20264;-79
2021/06/28 10:57:48;;;;;;;0.80;0.80;;;31.40;95.50;;;;;;5080561;28;20275;-77
2021/06/28 11:00:15;;;;;;;1.23;1.13;;;31.60;95.50;;;;;;5088859;28;20248;-80
2021/06/28 11:02:42;;;;;;;1.47;1.07;;;31.60;94.40;;;;;;5080016;28;20175;-84
2021/06/28 11:05:10;;;;;;;2.77;1.20;;;31.60;95.60;;;;;;5083677;28;20220;-83
2021/06/28 11:07:47;;;;;;;1.10;1.07;;;31.70;97.60;;;;;;5093870;28;20194;-84
2021/06/28 11:10:14;;;;;;;1.30;1.20;;;31.90;97.00;;;;;;5103295;28;20192;-84
2021/06/28 11:12:41;;;;;;;1.57;1.20;;;31.90;93.60;;;;;;5094904;28;20266;-84
2021/06/28 11:15:25;;;;;;;1.53;1.33;;;31.90;97.10;;;;;;5083081;28;20211;-84
2021/06/28 11:17:57;;;;;;;1.47;1.13;;;32.20;93.50;;;;;;5094105;28;20281;-83
2021/06/28 11:20:33;;;;;;;1.93;1.20;;;32.30;94.30;;;;;;5105232;28;20187;-83
2021/06/28 11:23:08;;;;;;;2.00;1.43;;;32.50;94.30;;;;;;5100496;28;20187;-83
2021/06/28 11:25:51;;;;;;;1.30;1.20;;;32.70;91.10;;;;;;5090166;28;20171;-79
2021/06/28 11:28:24;;;;;;;1.30;1.20;;;32.60;92.00;;;;;;5082128;28;20203;-81
2021/06/28 11:30:55;;;;;;;2.40;1.20;;;32.70;93.70;;;;;;5081165;28;20178;-81
2021/06/28 11:33:36;;;;;;;1.47;1.10;;;32.80;91.20;;;;;;5093268;28;20172;-81
2021/06/28 11:36:05;;;;;;;2.50;1.33;;;33.10;88.00;;;;;;5103052;28;20196;-81
2021/06/28 11:38:34;;;;;;;3.00;1.50;;;33.20;89.50;;;;;;5101734;28;20196;-81
2021/06/28 11:41:21;;;;;;;1.67;1.30;;;33.40;95.10;;;;;;5101517;28;20175;-81
2021/06/28 11:43:53;;;;;;;1.67;1.30;;;33.60;92.60;;;;;;5086261;28;20188;-81
2021/06/28 11:46:44;;;;;;;2.03;1.50;;;34.00;96.00;;;;;;5082081;28;20203;-81
2021/06/28 11:49:12;;;;;;;3.73;1.37;;;34.40;91.20;;;;;;5081962;28;20217;-81
2021/06/28 11:51:45;;;;;;;1.50;1.40;;;34.70;90.00;;;;;;5080829;28;20561;-81
2021/06/28 11:54:16;;;;;;;4.93;1.60;;;34.70;79.90;;;;;;5081670;28;20555;-81
2021/06/28 11:56:43;;;;;;;1.50;1.37;;;34.70;84.20;;;;;;5079897;28;20169;-81
2021/06/28 11:59:17;;;;;;;2.37;1.27;;;34.90;87.70;;;;;;5078187;28;20218;-81
2021/06/28 12:01:44;;;;;;;3.73;1.40;;;35.00;85.80;;;;;;5076913;28;20163;-81
2021/06/28 12:04:21;;;;;;;2.07;1.30;;;35.20;81.70;;;;;;5104221;28;20188;-81
2021/06/28 12:06:49;;;;;;;5.43;1.50;;;35.40;90.40;;;;;;5100953;28;20199;-81
2021/06/28 12:09:15;;;;;;;1.40;1.30;;;35.60;83.30;;;;;;5100735;28;20237;-81
2021/06/28 12:11:59;;;;;;;2.13;1.23;;;35.70;86.60;;;;;;5100555;28;20214;-81
2021/06/28 12:14:28;;;;;;;2.80;1.53;;;35.90;79.90;;;;;;5102670;28;20199;-81
2021/06/28 12:16:54;;;;;;;1.70;1.50;;;36.00;83.60;;;;;;5101124;28;20180;-81
2021/06/28 12:19:20;;;;;;;1.53;1.43;;;36.20;83.40;;;;;;5100116;28;20599;-81
2021/06/28 12:21:45;;;;;;;2.23;1.30;;;36.30;78.90;;;;;;5100291;28;20182;-82
2021/06/28 12:24:18;;;;;;;2.07;1.60;;;36.40;71.50;;;;;;5101753;28;20558;-82
2021/06/28 12:27:13;;;;;;;1.40;1.30;;;36.60;87.50;;;;;;5102625;28;20655;-81
2021/06/28 12:29:47;;;;;;;2.07;1.30;;;36.80;74.20;;;;;;5104004;28;20208;-81
2021/06/28 12:32:22;;;;;;;3.00;1.40;;;36.80;77.60;;;;;;5106392;28;20220;-81
2021/06/28 12:34:57;;;;;;;1.43;1.33;;;36.90;76.40;;;;;;5082445;28;20198;-81
2021/06/28 12:37:31;;;;;;;1.50;1.40;;;36.90;73.40;;;;;;5083008;28;20157;-81
2021/06/28 12:40:14;;;;;;;2.27;1.17;;;36.80;66.70;;;;;;5079982;28;20195;-81
2021/06/28 12:42:49;;;;;;;2.10;1.33;;;36.50;67.70;;;;;;5084236;28;20182;-82
2021/06/28 12:45:18;;;;;;;1.53;1.43;;;36.40;71.70;;;;;;5101414;28;20210;-81
2021/06/28 12:47:47;;;;;;;1.60;1.40;;;36.20;68.80;;;;;;5102478;28;20297;-82
2021/06/28 12:50:17;;;;;;;2.73;1.50;;;35.90;71.00;;;;;;5102841;28;20191;-84
2021/06/28 12:52:44;;;;;;;4.67;1.60;;;35.70;73.90;;;;;;5102192;28;20182;-83